首页
METAR-TAF:

METAR-TAF

机场 :

Frontone, 意大利

纬度: 43-31N, 经度: 012-44E, 海拔: 570米

当前天气观测

该预报发布于1小时和10分钟前的11:55 UTC
风速22节,风向西南,有时为34节阵风
温度 14°C
湿度 24%
气压 1023 hPa
能见度10公里或以上
1500米以下无云,无积雨云

METAR: LIVF 231155Z 23022G34KT CAVOK 14/M06 Q1023 RMK BKN SCT200 SCT210 MON LIB VAL NIL VIS MIN 9999

时间: 14:05 (13:05 UTC)


TAF: 丢失

超过4000个机场的气象观测和天气预报(METAR&TAF报告)。

可查询的气象台以黄色和红色小点在地图上表示。

将鼠标移到小点上方,可查看气象台名称。

然后点击查看天气观测和预报。

如需切换地图:点击带黑十字的绿色按钮放大地图;点击带横线的绿色按钮缩小地图;或者点击绿色箭头查看邻近地区的地图。


METAR-TAF: